Terminal Aerodrome Forecast
Issued by NWS

Home | Current Version | Previous Version | Text Only | Print | Product List | Glossary On
Versions: 1 2 3 4 5 6 7 8 9 10 11 12 13 14 15 16 17
000
FTUS46 KMTR 272300
TAFSTS
TAF
KSTS 272337Z 2800/2824 18011KT P6SM SKC
     FM280400 15004KT P6SM SKC
     FM280900 VRB03KT P6SM OVC004
      TEMPO 2813/2817 00000KT 1/2SM FG OVC002
     FM281800 VRB04KT P6SM SKC
     FM282200 18009KT P6SM SKC=

USA.gov is the U.S. government's official web portal to all federal, state and local government web resources and services.